createdAt,value
2022-09-15T00:01:15.874Z,4.32
2022-09-15T00:03:42.150Z,4.22
2022-09-15T00:06:08.358Z,5.47
2022-09-15T00:08:34.575Z,4.38
2022-09-15T00:11:00.814Z,4.30
2022-09-15T00:13:27.035Z,4.80
2022-09-15T00:15:53.227Z,4.68
2022-09-15T00:18:19.434Z,3.53
2022-09-15T00:20:45.616Z,4.40
2022-09-15T00:23:11.846Z,4.22
2022-09-15T00:25:38.046Z,4.40
2022-09-15T00:28:04.247Z,4.35
2022-09-15T00:30:30.484Z,5.90
2022-09-15T00:32:56.735Z,4.30
2022-09-15T00:35:23.026Z,4.30
2022-09-15T00:37:49.314Z,4.50
2022-09-15T00:40:15.559Z,5.18
2022-09-15T00:42:41.838Z,5.30
2022-09-15T00:45:08.029Z,4.45
2022-09-15T00:47:34.255Z,4.30
2022-09-15T00:50:00.461Z,6.78
2022-09-15T00:52:26.681Z,3.80
2022-09-15T00:54:52.876Z,4.43
2022-09-15T00:57:19.080Z,5.55
2022-09-15T00:59:45.271Z,4.15
2022-09-15T01:02:11.513Z,4.50
2022-09-15T01:04:37.784Z,3.85
2022-09-15T01:07:04.001Z,4.97
2022-09-15T01:09:30.237Z,5.95
2022-09-15T01:11:56.450Z,4.40
2022-09-15T01:14:22.667Z,4.38
2022-09-15T01:16:48.977Z,3.35
2022-09-15T01:19:15.270Z,4.90
2022-09-15T01:21:41.493Z,4.70
2022-09-15T01:24:07.697Z,4.15
2022-09-15T01:26:33.916Z,5.13
2022-09-15T01:29:00.155Z,5.20
2022-09-15T01:31:26.400Z,4.40
2022-09-15T01:33:52.632Z,4.57
2022-09-15T01:36:18.837Z,4.30
2022-09-15T01:38:45.045Z,4.65
2022-09-15T01:41:11.272Z,4.40
2022-09-15T01:43:37.464Z,5.15
2022-09-15T01:46:03.749Z,4.68
2022-09-15T01:48:29.992Z,4.45
2022-09-15T01:50:56.193Z,4.68
2022-09-15T01:53:22.387Z,4.00
2022-09-15T01:55:48.613Z,5.30
2022-09-15T01:58:14.807Z,4.05
2022-09-15T02:00:41.029Z,3.90
2022-09-15T02:03:07.237Z,5.38
2022-09-15T02:05:33.559Z,4.63
2022-09-15T02:07:59.781Z,6.05
2022-09-15T02:10:26.068Z,5.43
2022-09-15T02:12:52.287Z,4.45
2022-09-15T02:15:18.536Z,5.75
2022-09-15T02:17:44.740Z,4.88
2022-09-15T02:20:11.028Z,6.05
2022-09-15T02:22:37.207Z,4.68
2022-09-15T02:25:03.458Z,5.30
2022-09-15T02:27:29.646Z,5.82
2022-09-15T02:29:55.852Z,4.65
2022-09-15T02:32:22.066Z,4.28
2022-09-15T02:34:48.270Z,5.72
2022-09-15T02:37:14.493Z,5.18
2022-09-15T02:39:40.700Z,5.50
2022-09-15T02:42:06.950Z,6.03
2022-09-15T02:44:33.252Z,4.97
2022-09-15T02:46:59.478Z,5.28
2022-09-15T02:49:25.674Z,5.10
2022-09-15T02:51:51.889Z,4.50
2022-09-15T02:54:18.083Z,5.80
2022-09-15T02:56:44.312Z,5.45
2022-09-15T02:59:10.539Z,5.95
2022-09-15T03:01:36.833Z,6.07
2022-09-15T03:04:03.046Z,5.88
2022-09-15T03:06:29.315Z,6.35
2022-09-15T03:08:55.515Z,4.50
2022-09-15T03:11:21.739Z,4.68
2022-09-15T03:13:47.945Z,5.22
2022-09-15T03:16:14.432Z,4.82
2022-09-15T03:18:40.703Z,5.65
2022-09-15T03:21:06.931Z,5.70
2022-09-15T03:23:33.183Z,6.07
2022-09-15T03:25:59.412Z,6.45
2022-09-15T03:28:25.610Z,5.53
2022-09-15T03:30:51.812Z,5.57
2022-09-15T03:33:18.101Z,6.47
2022-09-15T03:35:44.311Z,5.55
2022-09-15T03:38:10.578Z,5.10
2022-09-15T03:40:36.790Z,5.38
2022-09-15T03:43:03.082Z,6.45
2022-09-15T03:45:29.458Z,5.88
2022-09-15T03:47:55.697Z,5.00
2022-09-15T03:50:21.938Z,5.25
2022-09-15T03:52:48.167Z,4.75
2022-09-15T03:55:14.377Z,5.15
2022-09-15T03:57:40.596Z,5.38
2022-09-15T04:00:07.065Z,5.22
2022-09-15T04:02:33.378Z,6.10
2022-09-15T04:04:59.643Z,5.28
2022-09-15T04:07:25.856Z,6.68
2022-09-15T04:09:52.148Z,5.55
2022-09-15T04:12:18.388Z,4.95
2022-09-15T04:14:44.597Z,5.40
2022-09-15T04:17:10.806Z,7.25
2022-09-15T04:19:37.022Z,6.28
2022-09-15T04:22:03.224Z,6.80
2022-09-15T04:24:29.455Z,6.07
2022-09-15T04:26:55.807Z,4.78
2022-09-15T04:29:22.016Z,5.40
2022-09-15T04:31:48.250Z,5.70
2022-09-15T04:34:14.506Z,4.97
2022-09-15T04:36:40.740Z,7.43
2022-09-15T04:39:07.130Z,7.90
2022-09-15T04:41:33.349Z,6.65
2022-09-15T04:43:59.558Z,6.60
2022-09-15T04:46:25.833Z,5.45
2022-09-15T04:48:52.106Z,6.03
2022-09-15T04:51:18.313Z,6.32
2022-09-15T04:53:44.633Z,5.70
2022-09-15T04:56:10.914Z,4.93
2022-09-15T04:58:37.119Z,6.55
2022-09-15T05:01:03.459Z,6.65
2022-09-15T05:03:29.712Z,6.82
2022-09-15T05:05:55.980Z,8.82
2022-09-15T05:08:22.318Z,6.00
2022-09-15T05:10:48.567Z,4.50
2022-09-15T05:13:14.775Z,5.63
2022-09-15T05:15:41.179Z,6.35
2022-09-15T05:18:07.481Z,6.68
2022-09-15T05:20:33.964Z,5.18
2022-09-15T05:23:00.169Z,6.82
2022-09-15T05:25:26.441Z,5.57
2022-09-15T05:27:52.646Z,6.03
2022-09-15T05:33:05.095Z,5.18
2022-09-15T05:35:31.334Z,5.38
2022-09-15T05:37:57.549Z,4.85
2022-09-15T05:40:23.816Z,4.57
2022-09-15T05:42:50.056Z,6.63
2022-09-15T05:45:16.262Z,7.30
2022-09-15T05:47:42.474Z,6.10
2022-09-15T05:50:08.689Z,5.93
2022-09-15T05:52:34.888Z,6.65
2022-09-15T05:55:01.128Z,6.95
2022-09-15T05:57:27.320Z,5.00
2022-09-15T05:59:53.520Z,5.28
2022-09-15T06:02:19.816Z,5.07
2022-09-15T06:04:46.068Z,6.57
2022-09-15T06:07:12.278Z,6.15
2022-09-15T06:09:38.508Z,5.40
2022-09-15T06:12:04.735Z,5.78
2022-09-15T06:14:30.985Z,5.15
2022-09-15T06:16:57.198Z,5.60
2022-09-15T06:19:23.432Z,6.65
2022-09-15T06:21:49.624Z,5.07
2022-09-15T06:24:15.887Z,4.63
2022-09-15T06:26:42.104Z,4.40
2022-09-15T06:29:08.338Z,5.53
2022-09-15T06:31:34.572Z,6.18
2022-09-15T06:34:00.795Z,5.78
2022-09-15T06:36:26.988Z,5.45
2022-09-15T06:38:53.275Z,4.13
2022-09-15T06:41:19.575Z,5.45
2022-09-15T06:43:45.802Z,4.95
2022-09-15T06:46:12.096Z,4.35
2022-09-15T06:48:38.361Z,4.63
2022-09-15T06:51:04.621Z,5.22
2022-09-15T06:53:30.852Z,4.55
2022-09-15T06:55:57.048Z,3.70
2022-09-15T06:58:23.244Z,2.92
2022-09-15T07:00:49.504Z,3.15
2022-09-15T07:03:15.881Z,3.40
2022-09-15T07:05:42.132Z,3.45
2022-09-15T07:08:08.358Z,3.00
2022-09-15T07:10:34.552Z,3.35
2022-09-15T07:13:00.785Z,4.88
2022-09-15T07:15:27.005Z,2.75
2022-09-15T07:17:53.201Z,3.38
2022-09-15T07:20:19.422Z,2.28
2022-09-15T07:22:45.613Z,3.10
2022-09-15T07:25:11.818Z,3.05
2022-09-15T07:27:38.003Z,2.80
2022-09-15T07:30:04.248Z,3.25
2022-09-15T07:32:30.542Z,2.88
2022-09-15T07:34:58.455Z,3.03
2022-09-15T07:37:24.859Z,2.33
2022-09-15T07:39:51.175Z,2.60
2022-09-15T07:42:17.420Z,2.33
2022-09-15T07:44:43.649Z,2.92
2022-09-15T07:47:09.875Z,3.33
2022-09-15T07:49:36.104Z,2.40
2022-09-15T07:52:02.296Z,3.95
2022-09-15T07:54:28.529Z,2.40
2022-09-15T07:56:54.727Z,3.75
2022-09-15T07:59:20.962Z,2.60
2022-09-15T08:01:47.200Z,3.00
2022-09-15T08:04:13.473Z,1.92
2022-09-15T08:06:39.699Z,2.92
2022-09-15T08:09:05.933Z,1.80
2022-09-15T08:11:32.186Z,3.65
2022-09-15T08:13:58.405Z,3.80
2022-09-15T08:16:24.694Z,2.50
2022-09-15T08:18:51.149Z,3.60
2022-09-15T08:21:17.385Z,3.20
2022-09-15T08:23:43.597Z,2.78
2022-09-15T08:26:13.785Z,2.28
2022-09-15T08:28:40.472Z,2.90
2022-09-15T08:31:06.698Z,2.58
2022-09-15T08:33:33.000Z,3.17
2022-09-15T08:35:59.181Z,2.78
2022-09-15T08:38:25.444Z,2.40
2022-09-15T08:40:51.655Z,2.78
2022-09-15T08:43:17.955Z,2.53
2022-09-15T08:45:44.184Z,2.20
2022-09-15T08:48:10.402Z,2.58
2022-09-15T08:50:36.606Z,2.28
2022-09-15T08:53:02.821Z,3.45
2022-09-15T08:55:29.063Z,1.80
2022-09-15T08:57:55.335Z,2.65
2022-09-15T09:00:21.526Z,2.15
2022-09-15T09:02:47.785Z,2.10
2022-09-15T09:05:14.068Z,1.80
2022-09-15T09:07:40.270Z,2.20
2022-09-15T09:10:06.486Z,2.67
2022-09-15T09:12:32.676Z,2.10
2022-09-15T09:14:59.025Z,2.47
2022-09-15T09:17:25.218Z,2.05
2022-09-15T09:19:51.456Z,2.63
2022-09-15T09:22:17.682Z,1.55
2022-09-15T09:24:43.881Z,2.38
2022-09-15T09:27:10.074Z,2.50
2022-09-15T09:29:36.310Z,1.50
2022-09-15T09:32:02.539Z,2.45
2022-09-15T09:34:28.767Z,1.73
2022-09-15T09:36:54.981Z,2.22
2022-09-15T09:39:21.174Z,1.58
2022-09-15T09:41:47.408Z,1.48
2022-09-15T09:44:13.630Z,1.63
2022-09-15T09:46:39.957Z,2.47
2022-09-15T09:49:06.253Z,1.50
2022-09-15T09:51:32.459Z,1.70
2022-09-15T09:53:58.681Z,1.85
2022-09-15T09:56:24.969Z,2.33
2022-09-15T09:58:51.173Z,2.70
2022-09-15T10:01:17.466Z,2.13
2022-09-15T10:03:43.684Z,1.70
2022-09-15T10:06:09.887Z,2.38
2022-09-15T10:08:36.078Z,2.25
2022-09-15T10:11:02.357Z,2.22
2022-09-15T10:13:28.562Z,1.63
2022-09-15T10:15:54.784Z,2.35
2022-09-15T10:18:20.976Z,2.78
2022-09-15T10:20:47.169Z,3.05
2022-09-15T10:23:13.370Z,1.70
2022-09-15T10:25:58.076Z,1.55
2022-09-15T10:28:24.652Z,1.55
2022-09-15T10:30:50.888Z,1.83
2022-09-15T10:33:17.106Z,2.45
2022-09-15T10:35:43.334Z,2.28
2022-09-15T10:38:09.574Z,2.33
2022-09-15T10:40:35.835Z,3.03
2022-09-15T10:43:02.048Z,1.27
2022-09-15T10:45:28.276Z,1.45
2022-09-15T10:47:54.591Z,1.40
2022-09-15T10:50:20.812Z,1.92
2022-09-15T10:52:47.066Z,2.58
2022-09-15T10:55:13.324Z,2.95
2022-09-15T10:57:39.581Z,1.20
2022-09-15T11:00:05.880Z,2.05
2022-09-15T11:02:32.247Z,1.10
2022-09-15T11:04:58.558Z,1.63
2022-09-15T11:07:24.974Z,2.17
2022-09-15T11:09:51.253Z,0.95
2022-09-15T11:12:17.810Z,1.30
2022-09-15T11:14:44.017Z,1.15
2022-09-15T11:17:10.228Z,0.90
2022-09-15T11:19:36.703Z,2.17
2022-09-15T11:22:02.942Z,1.58
2022-09-15T11:24:29.138Z,1.27
2022-09-15T11:26:55.358Z,1.42
2022-09-15T11:29:21.575Z,0.90
2022-09-15T11:31:47.882Z,1.88
2022-09-15T11:34:14.232Z,0.70
2022-09-15T11:36:40.511Z,2.25
2022-09-15T11:39:07.016Z,1.60
2022-09-15T11:41:33.335Z,1.25
2022-09-15T11:43:59.517Z,1.70
